createdAt,value
2023-02-23T00:01:56.386Z,44.65
2023-02-23T00:04:26.581Z,42.95
2023-02-23T00:06:55.035Z,42.58
2023-02-23T00:09:35.382Z,43.03
2023-02-23T00:12:08.147Z,43.47
2023-02-23T00:14:39.030Z,43.83
2023-02-23T00:17:14.496Z,43.08
2023-02-23T00:19:44.683Z,43.33
2023-02-23T00:22:13.037Z,42.35
2023-02-23T00:24:43.590Z,42.90
2023-02-23T00:27:17.829Z,42.38
2023-02-23T00:29:49.720Z,42.80
2023-02-23T00:32:21.791Z,41.88
2023-02-23T00:34:50.917Z,44.03
2023-02-23T00:37:22.140Z,43.03
2023-02-23T00:39:53.186Z,41.70
2023-02-23T00:42:21.668Z,44.25
2023-02-23T00:44:53.398Z,41.17
2023-02-23T00:47:21.859Z,42.78
2023-02-23T00:49:52.558Z,43.83
2023-02-23T00:52:23.462Z,42.50
2023-02-23T00:55:03.423Z,42.97
2023-02-23T00:57:34.490Z,40.78
2023-02-23T01:00:10.692Z,42.40
2023-02-23T01:02:43.086Z,44.80
2023-02-23T01:05:14.067Z,42.08
2023-02-23T01:07:42.379Z,40.78
2023-02-23T01:10:20.137Z,43.15
2023-02-23T01:12:50.717Z,41.70
2023-02-23T01:15:21.060Z,41.72
2023-02-23T01:17:49.663Z,42.25
2023-02-23T01:20:19.722Z,42.90
2023-02-23T01:22:52.576Z,41.15
2023-02-23T01:25:38.658Z,42.13
2023-02-23T01:28:06.946Z,41.92
2023-02-23T01:30:35.337Z,41.92
2023-02-23T01:33:03.826Z,41.00
2023-02-23T01:35:33.309Z,40.97
2023-02-23T01:38:02.281Z,40.92
2023-02-23T01:40:36.854Z,41.65
2023-02-23T01:43:17.628Z,42.38
2023-02-23T01:45:47.068Z,41.85
2023-02-23T01:48:19.631Z,42.05
2023-02-23T01:50:53.842Z,42.40
2023-02-23T01:53:22.818Z,40.60
2023-02-23T01:55:55.120Z,42.42
2023-02-23T01:58:26.981Z,41.85
2023-02-23T02:00:58.201Z,41.17
2023-02-23T02:03:29.867Z,41.13
2023-02-23T02:06:01.520Z,40.75
2023-02-23T02:08:33.658Z,41.00
2023-02-23T02:11:09.051Z,40.35
2023-02-23T02:13:43.379Z,40.53
2023-02-23T02:16:35.139Z,40.88
2023-02-23T02:19:31.794Z,40.85
2023-02-23T02:22:41.876Z,40.88
2023-02-23T02:25:35.558Z,40.83
2023-02-23T02:28:43.599Z,40.05
2023-02-23T02:31:49.929Z,42.90
2023-02-23T02:35:04.127Z,42.05
2023-02-23T02:37:44.136Z,39.78
2023-02-23T02:40:22.513Z,40.30
2023-02-23T02:43:00.504Z,39.40
2023-02-23T02:45:35.344Z,39.88
2023-02-23T02:48:15.635Z,39.53
2023-02-23T02:50:50.279Z,39.13
2023-02-23T02:53:32.859Z,41.25
2023-02-23T02:56:07.403Z,40.97
2023-02-23T02:58:40.542Z,41.17
2023-02-23T03:01:36.536Z,40.55
2023-02-23T03:04:39.076Z,39.33
2023-02-23T03:07:34.855Z,41.03
2023-02-23T03:10:32.038Z,40.35
2023-02-23T03:13:26.841Z,41.15
2023-02-23T03:16:36.164Z,39.10
2023-02-23T03:19:38.957Z,40.25
2023-02-23T03:22:32.142Z,39.40
2023-02-23T03:25:26.483Z,40.00
2023-02-23T03:28:23.540Z,39.83
2023-02-23T03:31:18.561Z,39.33
2023-02-23T03:34:12.567Z,38.95
2023-02-23T03:37:06.853Z,40.63
2023-02-23T03:39:58.193Z,39.05
2023-02-23T03:42:48.906Z,40.40
2023-02-23T03:45:40.173Z,40.20
2023-02-23T03:48:31.978Z,38.65
2023-02-23T03:51:22.823Z,39.00
2023-02-23T03:54:15.585Z,40.10
2023-02-23T03:57:07.642Z,39.28
2023-02-23T04:00:00.618Z,39.88
2023-02-23T04:02:50.510Z,39.10
2023-02-23T04:05:38.471Z,40.35
2023-02-23T04:08:28.554Z,41.47
2023-02-23T04:11:22.726Z,40.55
2023-02-23T04:14:00.837Z,38.80
2023-02-23T04:16:32.658Z,39.00
2023-02-23T04:19:14.465Z,38.40
2023-02-23T04:21:43.062Z,39.03
2023-02-23T04:24:15.370Z,38.40
2023-02-23T04:26:46.192Z,40.53
2023-02-23T04:29:14.865Z,41.42
2023-02-23T04:31:44.193Z,39.65
2023-02-23T04:34:17.034Z,42.65
2023-02-23T04:36:45.764Z,41.47
2023-02-23T04:39:14.447Z,41.25
2023-02-23T04:41:45.964Z,38.15
2023-02-23T04:44:14.404Z,38.85
2023-02-23T04:46:43.226Z,38.72
2023-02-23T04:49:18.185Z,40.55
2023-02-23T04:51:50.373Z,37.95
2023-02-23T04:54:18.960Z,38.72
2023-02-23T04:57:14.936Z,36.28
2023-02-23T04:59:52.403Z,39.15
2023-02-23T05:02:20.951Z,36.45
2023-02-23T05:04:51.419Z,38.80
2023-02-23T05:07:22.527Z,39.60
2023-02-23T05:12:52.308Z,38.78
2023-02-23T05:15:21.336Z,38.92
2023-02-23T05:17:52.886Z,43.38
2023-02-23T05:20:30.002Z,39.50
2023-02-23T05:23:01.808Z,41.38
2023-02-23T05:25:46.113Z,40.28
2023-02-23T05:28:16.618Z,40.08
2023-02-23T05:30:48.195Z,38.05
2023-02-23T05:33:20.178Z,39.75
2023-02-23T05:35:54.649Z,42.65
2023-02-23T05:38:23.472Z,41.88
2023-02-23T05:40:54.397Z,39.95
2023-02-23T05:43:23.076Z,40.75
2023-02-23T05:45:52.481Z,40.83
2023-02-23T05:48:24.062Z,41.00
2023-02-23T05:50:53.952Z,41.88
2023-02-23T05:53:22.958Z,42.17
2023-02-23T05:55:52.307Z,42.63
2023-02-23T05:58:20.391Z,40.70
2023-02-23T06:00:48.700Z,40.72
2023-02-23T06:03:17.038Z,38.35
2023-02-23T06:05:53.542Z,38.65
2023-02-23T06:08:23.695Z,39.25
2023-02-23T06:10:52.094Z,37.50
2023-02-23T06:13:23.401Z,38.95
2023-02-23T06:15:52.238Z,38.67
2023-02-23T06:18:28.804Z,38.60
2023-02-23T06:21:03.068Z,41.00
2023-02-23T06:23:35.802Z,39.55
2023-02-23T06:26:10.448Z,40.65
2023-02-23T06:28:38.769Z,38.50
2023-02-23T06:31:08.090Z,40.38
2023-02-23T06:33:39.911Z,40.33
2023-02-23T06:36:08.744Z,39.95
2023-02-23T06:38:38.550Z,42.03
2023-02-23T06:41:13.646Z,40.05
2023-02-23T06:43:42.344Z,40.65
2023-02-23T06:46:11.332Z,40.22
2023-02-23T06:48:51.245Z,40.13
2023-02-23T06:51:25.658Z,41.47
2023-02-23T06:53:58.752Z,40.47
2023-02-23T06:56:34.663Z,39.92
2023-02-23T06:59:05.838Z,39.97
2023-02-23T07:01:38.483Z,39.70
2023-02-23T07:04:11.326Z,39.90
2023-02-23T07:06:42.871Z,39.97
2023-02-23T07:09:12.728Z,43.38
2023-02-23T07:11:42.327Z,43.70
2023-02-23T07:14:21.511Z,41.45
2023-02-23T07:16:59.575Z,42.05
2023-02-23T07:19:28.859Z,41.95
2023-02-23T07:22:06.224Z,43.78
2023-02-23T07:24:42.133Z,43.67
2023-02-23T07:27:10.456Z,44.35
2023-02-23T07:29:41.728Z,41.30
2023-02-23T07:32:13.802Z,44.08
2023-02-23T07:34:42.469Z,43.20
2023-02-23T07:37:21.709Z,42.90
2023-02-23T07:39:53.230Z,41.30
2023-02-23T07:42:22.142Z,41.40
2023-02-23T07:44:51.033Z,42.78
2023-02-23T07:47:20.864Z,43.42
2023-02-23T07:49:50.877Z,42.83
2023-02-23T07:52:19.759Z,43.28
2023-02-23T07:54:50.273Z,40.33
2023-02-23T07:57:22.506Z,41.92
2023-02-23T07:59:52.755Z,41.53
2023-02-23T08:02:21.379Z,42.03
2023-02-23T08:04:50.020Z,40.38
2023-02-23T08:07:29.508Z,41.25
2023-02-23T08:09:57.822Z,42.10
2023-02-23T08:12:32.235Z,40.13
2023-02-23T08:15:00.781Z,39.17
2023-02-23T08:17:32.025Z,38.95
2023-02-23T08:20:01.403Z,39.75
2023-02-23T08:22:37.867Z,38.40
2023-02-23T08:25:12.929Z,38.50
2023-02-23T08:27:45.352Z,36.85
2023-02-23T08:30:15.657Z,37.53
2023-02-23T08:32:44.177Z,35.58
2023-02-23T08:35:13.281Z,35.58
2023-02-23T08:37:42.042Z,35.42
2023-02-23T08:40:15.833Z,35.67
2023-02-23T08:42:46.137Z,35.38
2023-02-23T08:45:14.703Z,35.22
2023-02-23T08:47:49.200Z,34.88
2023-02-23T08:50:17.330Z,34.05
2023-02-23T08:52:45.614Z,33.28
2023-02-23T08:57:57.862Z,31.88
2023-02-23T09:00:29.332Z,31.80
2023-02-23T09:02:57.748Z,29.25
2023-02-23T09:05:29.919Z,30.25
2023-02-23T09:07:58.341Z,30.05
2023-02-23T09:10:36.522Z,29.33
2023-02-23T09:13:12.736Z,30.52
2023-02-23T09:15:44.951Z,29.67
2023-02-23T09:18:15.788Z,30.05
2023-02-23T09:20:44.577Z,29.48
2023-02-23T09:23:16.046Z,29.15
2023-02-23T09:25:45.255Z,29.75
2023-02-23T09:28:22.387Z,29.10
2023-02-23T09:30:53.306Z,29.90
2023-02-23T09:33:21.579Z,30.15
2023-02-23T09:35:49.935Z,29.15
2023-02-23T09:38:18.351Z,30.83
2023-02-23T09:40:49.963Z,29.80
2023-02-23T09:43:28.139Z,30.23
2023-02-23T09:46:05.740Z,29.83
2023-02-23T09:48:36.185Z,30.88
2023-02-23T09:51:09.001Z,31.45
2023-02-23T09:53:42.990Z,30.80
2023-02-23T09:56:15.799Z,31.02
2023-02-23T09:58:45.700Z,31.58
2023-02-23T10:01:48.948Z,31.90
2023-02-23T10:04:22.096Z,31.85
2023-02-23T10:06:56.604Z,31.15
2023-02-23T10:09:43.948Z,31.77
2023-02-23T10:12:19.170Z,31.92
2023-02-23T10:15:06.807Z,32.03
2023-02-23T10:17:45.848Z,31.70
2023-02-23T10:20:24.801Z,32.05
2023-02-23T10:22:57.085Z,32.25
2023-02-23T10:25:29.201Z,31.55
2023-02-23T10:28:06.261Z,31.45
2023-02-23T10:30:38.910Z,31.63
2023-02-23T10:33:19.222Z,31.10
2023-02-23T10:35:58.013Z,31.23
2023-02-23T10:38:39.431Z,31.05
2023-02-23T10:41:09.755Z,31.45
2023-02-23T10:43:40.742Z,31.15
2023-02-23T10:46:21.301Z,30.58
2023-02-23T10:48:52.303Z,31.60
2023-02-23T10:51:28.506Z,31.30
2023-02-23T10:53:57.301Z,32.90
2023-02-23T10:56:32.839Z,32.20
2023-02-23T10:59:01.212Z,32.05
2023-02-23T11:02:02.965Z,30.60
2023-02-23T11:04:36.402Z,31.90
2023-02-23T11:07:10.949Z,31.80
2023-02-23T11:09:47.113Z,31.77
2023-02-23T11:12:23.056Z,31.50
2023-02-23T11:14:52.013Z,31.80
2023-02-23T11:17:29.609Z,31.20
2023-02-23T11:20:06.740Z,31.65
2023-02-23T11:22:39.006Z,31.20
2023-02-23T11:25:18.823Z,31.15
2023-02-23T11:27:51.605Z,31.98
2023-02-23T11:30:24.507Z,31.38
2023-02-23T11:32:55.747Z,31.67
2023-02-23T11:35:31.615Z,32.25
2023-02-23T11:38:00.264Z,32.97
2023-02-23T11:40:31.816Z,31.88
2023-02-23T11:43:09.996Z,32.17
2023-02-23T11:45:46.292Z,33.03
2023-02-23T11:48:23.425Z,32.60
2023-02-23T11:50:53.016Z,32.60
2023-02-23T11:53:29.647Z,32.47
2023-02-23T11:56:02.819Z,32.85
2023-02-23T11:58:37.038Z,33.38
2023-02-23T12:01:12.493Z,33.30
2023-02-23T12:03:48.002Z,32.78
2023-02-23T12:06:44.497Z,31.92
2023-02-23T12:09:43.354Z,33.33
2023-02-23T12:12:25.978Z,32.97
2023-02-23T12:15:16.627Z,34.05
2023-02-23T12:18:09.410Z,33.80
2023-02-23T12:21:22.140Z,33.58
2023-02-23T12:24:13.352Z,33.58
2023-02-23T12:27:14.807Z,34.17
2023-02-23T12:30:06.241Z,35.78
2023-02-23T12:33:03.265Z,34.97
2023-02-23T12:35:52.437Z,34.50
2023-02-23T12:38:55.223Z,37.00
2023-02-23T12:47:48.280Z,35.78
2023-02-23T12:50:26.926Z,36.70
2023-02-23T12:59:26.478Z,38.20
2023-02-23T13:02:32.994Z,39.90
2023-02-23T13:05:21.096Z,38.55
2023-02-23T13:08:15.684Z,38.92
2023-02-23T13:11:06.852Z,38.50
2023-02-23T13:19:44.345Z,38.28
2023-02-23T13:22:31.567Z,38.70
2023-02-23T13:28:42.215Z,35.17
2023-02-23T13:31:52.443Z,35.92
2023-02-23T13:34:32.714Z,35.70
2023-02-23T13:37:12.042Z,36.78
2023-02-23T13:40:04.834Z,35.90
2023-02-23T13:42:50.712Z,37.53
2023-02-23T13:45:33.793Z,36.25
2023-02-23T13:48:20.344Z,34.10
2023-02-23T13:51:08.911Z,35.70
2023-02-23T13:53:50.131Z,36.10
2023-02-23T13:56:24.658Z,35.85
2023-02-23T13:58:58.576Z,36.55
2023-02-23T14:01:35.892Z,37.35
2023-02-23T14:04:14.684Z,36.42
2023-02-23T14:06:59.023Z,36.60
2023-02-23T14:09:34.209Z,35.97
2023-02-23T14:12:19.370Z,35.20
2023-02-23T14:14:51.816Z,34.72
2023-02-23T14:17:58.688Z,34.17
2023-02-23T14:20:56.058Z,34.17
2023-02-23T14:23:47.897Z,33.97
2023-02-23T14:44:30.205Z,34.60
2023-02-23T14:47:05.511Z,34.10
2023-02-23T14:49:38.041Z,33.45
2023-02-23T14:52:08.753Z,33.10
2023-02-23T14:54:38.503Z,33.53
2023-02-23T14:57:08.569Z,32.85
2023-02-23T14:59:43.101Z,32.85
2023-02-23T15:02:12.875Z,32.33
2023-02-23T15:04:42.225Z,31.05
2023-02-23T15:07:18.729Z,30.38
2023-02-23T15:09:48.518Z,30.58
2023-02-23T15:12:21.053Z,29.85
2023-02-23T15:14:51.558Z,29.95
2023-02-23T15:17:23.413Z,28.85
2023-02-23T15:20:14.307Z,29.25
2023-02-23T15:22:46.820Z,29.02
2023-02-23T15:25:18.430Z,28.98
2023-02-23T15:27:47.691Z,28.50
2023-02-23T15:30:24.423Z,28.52
2023-02-23T15:33:01.932Z,29.05
2023-02-23T15:35:33.123Z,30.65
2023-02-23T15:38:14.275Z,31.10
2023-02-23T15:40:47.212Z,30.65
2023-02-23T15:43:15.420Z,30.48
2023-02-23T15:45:50.641Z,30.50
2023-02-23T15:48:22.823Z,31.00
2023-02-23T15:50:54.975Z,30.60
2023-02-23T15:53:30.403Z,30.77
2023-02-23T15:56:03.700Z,30.70
2023-02-23T15:58:35.095Z,29.48
2023-02-23T16:01:13.176Z,28.27
2023-02-23T16:03:47.142Z,26.75
2023-02-23T16:06:24.998Z,26.08
2023-02-23T16:09:05.906Z,25.55
2023-02-23T16:11:36.555Z,25.25
2023-02-23T16:14:06.957Z,25.13
2023-02-23T16:16:37.680Z,25.50
2023-02-23T16:19:07.910Z,25.33
2023-02-23T16:21:39.895Z,26.52
2023-02-23T16:24:11.468Z,26.55
2023-02-23T16:26:46.834Z,25.90
2023-02-23T16:29:19.093Z,26.13
2023-02-23T16:31:51.099Z,26.40
2023-02-23T16:34:21.888Z,25.75
2023-02-23T16:36:57.740Z,25.67
2023-02-23T16:39:29.287Z,25.70
2023-02-23T16:41:58.622Z,25.88
2023-02-23T16:44:37.827Z,26.40
2023-02-23T16:47:48.292Z,25.67
2023-02-23T16:50:20.482Z,25.48
2023-02-23T16:52:53.571Z,25.98
2023-02-23T16:55:26.004Z,24.90
2023-02-23T16:57:56.897Z,25.37
2023-02-23T17:00:28.747Z,25.33
2023-02-23T17:03:00.915Z,25.77
2023-02-23T17:05:30.493Z,25.27
2023-02-23T17:07:59.188Z,26.67
2023-02-23T17:10:31.457Z,26.73
2023-02-23T17:13:02.626Z,27.50
2023-02-23T17:15:34.156Z,26.40
2023-02-23T17:18:03.819Z,25.48
2023-02-23T17:20:32.784Z,26.70
2023-02-23T17:23:02.274Z,25.97
2023-02-23T17:25:30.939Z,25.40
2023-02-23T17:27:59.933Z,25.33
2023-02-23T17:30:38.048Z,25.03
2023-02-23T17:33:10.452Z,26.37
2023-02-23T17:35:38.873Z,25.60
2023-02-23T17:38:08.157Z,27.60
2023-02-23T17:40:38.088Z,31.10
2023-02-23T17:43:08.652Z,27.40
2023-02-23T17:45:37.286Z,27.53
2023-02-23T17:48:05.675Z,27.47
2023-02-23T17:50:35.294Z,26.30
2023-02-23T17:53:03.521Z,30.37
2023-02-23T17:55:33.720Z,29.10
2023-02-23T17:58:01.830Z,32.93
2023-02-23T18:00:29.946Z,28.67
2023-02-23T18:02:57.939Z,28.05
2023-02-23T18:05:26.130Z,29.67
2023-02-23T18:07:55.805Z,31.23
2023-02-23T18:10:25.609Z,35.17
2023-02-23T18:12:53.913Z,32.87
2023-02-23T18:15:22.434Z,30.23
2023-02-23T18:17:54.724Z,26.90
2023-02-23T18:20:23.071Z,27.57
2023-02-23T18:22:52.830Z,27.67
2023-02-23T18:25:26.812Z,27.53
2023-02-23T18:27:55.572Z,28.17
2023-02-23T18:30:25.102Z,29.30
2023-02-23T18:32:57.849Z,28.93
2023-02-23T18:35:26.057Z,27.10
2023-02-23T18:37:54.342Z,28.47
2023-02-23T18:40:24.951Z,26.57
2023-02-23T18:42:53.195Z,28.00
2023-02-23T18:45:21.601Z,29.60
2023-02-23T18:47:49.604Z,29.77
2023-02-23T18:50:19.290Z,30.67
2023-02-23T18:52:48.187Z,29.73
2023-02-23T18:55:17.017Z,28.03
2023-02-23T18:57:46.901Z,26.30
2023-02-23T19:00:16.711Z,27.63
2023-02-23T19:02:49.347Z,27.23
2023-02-23T19:05:21.006Z,27.20
2023-02-23T19:07:51.535Z,26.97
2023-02-23T19:10:19.956Z,27.17
2023-02-23T19:12:52.374Z,27.63
2023-02-23T19:15:20.667Z,27.90
2023-02-23T19:17:48.765Z,26.70
2023-02-23T19:20:19.621Z,26.30
2023-02-23T19:22:48.057Z,27.00
2023-02-23T19:25:16.748Z,25.90
2023-02-23T19:27:45.094Z,25.53
2023-02-23T19:30:15.339Z,26.60
2023-02-23T19:32:44.344Z,25.90
2023-02-23T19:35:15.909Z,25.80
2023-02-23T19:37:52.153Z,26.53
2023-02-23T19:40:22.698Z,26.50
2023-02-23T19:42:53.321Z,27.67
2023-02-23T19:45:24.926Z,27.27
2023-02-23T19:47:53.460Z,26.33
2023-02-23T19:50:22.573Z,27.30
2023-02-23T19:52:50.760Z,27.50
2023-02-23T19:55:20.543Z,27.13
2023-02-23T19:57:48.643Z,28.87
2023-02-23T20:00:17.446Z,27.93
2023-02-23T20:02:54.843Z,27.63
2023-02-23T20:05:25.611Z,27.53
2023-02-23T20:07:54.849Z,30.23
2023-02-23T20:10:27.019Z,29.70
2023-02-23T20:12:55.476Z,29.40
2023-02-23T20:15:24.044Z,29.70
2023-02-23T20:17:53.960Z,29.47
2023-02-23T20:20:25.529Z,26.93
2023-02-23T20:22:55.518Z,27.47
2023-02-23T20:25:24.407Z,27.10
2023-02-23T20:27:52.484Z,26.47
2023-02-23T20:30:20.969Z,27.70
2023-02-23T20:32:49.762Z,29.03
2023-02-23T20:35:20.556Z,27.37
2023-02-23T20:37:48.783Z,25.67
2023-02-23T20:40:18.638Z,27.13
2023-02-23T20:42:47.874Z,25.87
2023-02-23T20:45:17.815Z,28.67
2023-02-23T20:47:52.052Z,39.93
2023-02-23T20:50:23.035Z,28.10
2023-02-23T20:52:51.737Z,25.10
2023-02-23T20:55:20.180Z,25.87
2023-02-23T20:57:49.940Z,25.93
2023-02-23T21:00:26.681Z,26.73
2023-02-23T21:02:55.747Z,25.97
2023-02-23T21:05:28.553Z,25.77
2023-02-23T21:08:00.108Z,25.23
2023-02-23T21:10:30.975Z,25.00
2023-02-23T21:12:59.067Z,24.77
2023-02-23T21:15:29.290Z,24.50
2023-02-23T21:18:00.676Z,24.87
2023-02-23T21:20:33.856Z,24.27
2023-02-23T21:23:12.876Z,24.77
2023-02-23T21:25:44.481Z,25.63
2023-02-23T21:28:16.230Z,24.90
2023-02-23T21:30:49.838Z,25.67
2023-02-23T21:33:23.126Z,25.63
2023-02-23T21:36:06.129Z,27.20
2023-02-23T21:38:35.186Z,26.57
2023-02-23T21:41:08.438Z,26.83
2023-02-23T21:43:43.499Z,26.50
2023-02-23T21:46:19.624Z,27.27
2023-02-23T21:48:48.203Z,27.03
2023-02-23T21:51:19.133Z,26.57
2023-02-23T21:53:48.333Z,27.03
2023-02-23T21:56:20.362Z,28.10
2023-02-23T21:58:53.657Z,27.40
2023-02-23T22:01:24.770Z,27.97
2023-02-23T22:03:55.211Z,28.17
2023-02-23T22:06:27.174Z,27.63
2023-02-23T22:08:58.842Z,28.13
2023-02-23T22:11:29.366Z,27.77
2023-02-23T22:14:00.431Z,27.93
2023-02-23T22:16:34.276Z,28.17
2023-02-23T22:19:15.211Z,28.67
2023-02-23T22:21:47.838Z,27.80
2023-02-23T22:24:20.114Z,28.57
2023-02-23T22:26:54.285Z,29.20
2023-02-23T22:29:24.547Z,28.47
2023-02-23T22:31:53.439Z,28.80
2023-02-23T22:34:22.518Z,29.00
2023-02-23T22:36:52.565Z,29.03
2023-02-23T22:39:35.191Z,27.70
2023-02-23T22:42:09.449Z,29.03
2023-02-23T22:44:39.976Z,28.67
2023-02-23T22:47:08.659Z,29.27
2023-02-23T22:49:37.295Z,27.80
2023-02-23T22:52:07.797Z,28.27
2023-02-23T22:54:39.905Z,28.30
2023-02-23T22:57:09.168Z,27.77
2023-02-23T22:59:37.769Z,28.10
2023-02-23T23:02:06.063Z,27.13
2023-02-23T23:04:36.854Z,26.93
2023-02-23T23:07:08.155Z,26.83
2023-02-23T23:09:39.546Z,26.57
2023-02-23T23:12:12.115Z,27.17
2023-02-23T23:14:41.423Z,26.07
2023-02-23T23:17:10.004Z,26.00
2023-02-23T23:19:39.402Z,26.57
2023-02-23T23:22:14.820Z,27.23
2023-02-23T23:24:46.395Z,26.77
2023-02-23T23:27:19.911Z,26.17
2023-02-23T23:29:53.246Z,26.97
2023-02-23T23:32:27.911Z,25.70
2023-02-23T23:34:58.751Z,26.10
2023-02-23T23:37:29.310Z,26.07
2023-02-23T23:40:02.072Z,26.80
2023-02-23T23:42:30.731Z,26.27
2023-02-23T23:45:03.707Z,26.50
2023-02-23T23:47:32.316Z,25.73
2023-02-23T23:50:03.024Z,26.90
2023-02-23T23:52:35.672Z,27.17
2023-02-23T23:55:07.509Z,26.57
2023-02-23T23:57:39.322Z,26.10
